Arca — PDHT — position and weather

sailwx.info

Track history (hours):
 
Tides and Currents Weather Stations Pressure Air Temp Water Temp Dewpoint Dewpoint Depression Visibility Wind Speed Wind Dir Waves Ship Positions

Oceanographic research ship Arca (Netherlands)

Detailed information on ship capabilities available from University of Delaware's Ocean Information Center.

Last reported at 2019-Feb-15 21:14 UTC. Time now 2019-Feb-16 03:55 UTC.
Position N 54°47' E 004°20'.

Length 83 m; draft 5 m.

Type: Law enforcement. MMSI: 244454000.

Date/timePositionNaut miles runAvg speedWind from/ knotsBaromVisibWave heightAir tempDewpointWater temp
2019-Feb-15 21:14N 54°47' E 004°20'0 0.0
2019-Feb-15 20:59N 54°47' E 004°20'0 0.0
2019-Feb-15 20:29N 54°47' E 004°20'0 0.0
2019-Feb-15 19:50N 54°47' E 004°20'0 0.0
2019-Feb-15 19:29N 54°47' E 004°20'0 0.0
2019-Feb-15 18:59N 54°47' E 004°20'0 0.0
2019-Feb-15 18:29N 54°47' E 004°20'1 1.6
2019-Feb-15 18:00N 54°48' E 004°21'2 3.8
2019-Feb-15 17:30N 54°49' E 004°19'2 3.9
2019-Feb-15 17:00N 54°51' E 004°19'1 2.3
2019-Feb-15 16:30N 54°50' E 004°19'1 1.6
2019-Feb-15 16:00N 54°50' E 004°18'1 1.4
2019-Feb-15 15:30N 54°50' E 004°18'3 4.9
2019-Feb-15 15:00N 54°52' E 004°17'4 8.6
2019-Feb-15 14:30N 54°56' E 004°15'1 1.8
2019-Feb-15 14:00N 54°57' E 004°14'4 8.1
2019-Feb-15 13:30N 54°55' E 004°09'1 1.9
2019-Feb-15 12:59N 54°54' E 004°10'2 4.1
2019-Feb-15 12:30N 54°52' E 004°10'1 1.5
2019-Feb-15 11:58N 54°52' E 004°09'2 4.9
2019-Feb-15 11:30N 54°50' E 004°08'2 3.3
2019-Feb-15 11:00N 54°52' E 004°06'5 9.6
2019-Feb-15 10:29N 54°52' E 003°58'1 2.9
2019-Feb-15 10:00N 54°53' E 003°56'2 3.2
2019-Feb-15 09:30N 54°53' E 003°53'3 6.7
2019-Feb-15 08:59N 54°56' E 003°51'1 2.8
2019-Feb-15 08:30N 54°55' E 003°49'7 7.0
2019-Feb-15 07:32N 54°57' E 004°00'1 5.9
2019-Feb-15 07:25N 54°58' E 004°01'2 4.2
2019-Feb-15 06:50N 54°60' E 004°04'1 2.1
2019-Feb-15 06:26N 55°00' E 004°05'0 0.0
2019-Feb-15 03:05N 55°00' E 004°05'0 0.0
2019-Feb-15 02:32N 55°00' E 004°05'0 0.0
2019-Feb-15 02:05N 55°00' E 004°05'0 0.0
2019-Feb-15 01:50N 55°00' E 004°05'0 0.0
2019-Feb-15 01:23N 55°00' E 004°05'0 0.0
2019-Feb-15 00:47N 55°00' E 004°05'0 0.0
2019-Feb-15 00:26N 55°00' E 004°05'0 0.0
2019-Feb-14 23:56N 55°00' E 004°05'0 0.0
2019-Feb-14 22:17N 55°00' E 004°05'0 0.0
2019-Feb-14 21:47N 55°00' E 004°05'0 0.0
2019-Feb-14 17:07N 55°00' E 004°05'0 0.2
2019-Feb-14 16:52N 55°00' E 004°05'1 2.0
2019-Feb-14 16:30N 55°01' E 004°06'2 3.4
2019-Feb-14 16:00N 55°02' E 004°07'3 6.1
2019-Feb-14 15:28N 55°05' E 004°03'3 7.2
2019-Feb-14 15:00N 55°08' E 004°01'  
2019-Feb-12 04:38N 53°00' E 004°29'110.8
2019-Feb-12 04:31N 52°59' E 004°28'510.8
2019-Feb-12 04:01N 52°54' E 004°29'510.6
2019-Feb-12 03:30N 52°48' E 004°30'510.5
2019-Feb-12 03:00N 52°43' E 004°30'510.8
2019-Feb-12 02:30N 52°38' E 004°29'510.5
2019-Feb-12 02:01N 52°33' E 004°27'510.7
2019-Feb-12 01:30N 52°27' E 004°25'510.5
2019-Feb-12 01:00N 52°22' E 004°22'510.8
2019-Feb-12 00:30N 52°17' E 004°20'510.8
2019-Feb-12 00:01N 52°12' E 004°17'510.9
2019-Feb-11 23:30N 52°07' E 004°15'1 1.8
2019-Feb-11 22:58N 52°06' E 004°16'0 0.0
2019-Feb-11 22:25N 52°06' E 004°16'0 0.0
2019-Feb-11 21:58N 52°06' E 004°16'0 0.0
2019-Feb-11 21:28N 52°06' E 004°16'0 0.0
2019-Feb-11 20:58N 52°06' E 004°16'0 0.0
2019-Feb-11 20:28N 52°06' E 004°16'0 0.0
2019-Feb-11 19:58N 52°06' E 004°16'0 0.0
2019-Feb-11 19:28N 52°06' E 004°16'0 0.0
2019-Feb-11 18:55N 52°06' E 004°16'0 0.0
2019-Feb-11 18:28N 52°06' E 004°16'0 0.0
2019-Feb-11 17:58N 52°06' E 004°16'0 0.0
2019-Feb-11 17:28N 52°06' E 004°16'0 0.0
2019-Feb-11 16:58N 52°06' E 004°16'0 0.0
2019-Feb-11 16:28N 52°06' E 004°16'0 0.0
2019-Feb-11 15:58N 52°06' E 004°16'0 0.0
2019-Feb-11 15:28N 52°06' E 004°16'0 0.0
2019-Feb-11 14:58N 52°06' E 004°16'0 0.0
2019-Feb-11 14:28N 52°06' E 004°16'0 0.0
2019-Feb-11 13:58N 52°06' E 004°16'0 0.0
2019-Feb-11 13:28N 52°06' E 004°16'0 0.0
2019-Feb-11 12:58N 52°06' E 004°16'0 0.0
2019-Feb-11 12:25N 52°06' E 004°16'0 0.0
2019-Feb-11 11:58N 52°06' E 004°16'0 0.0
2019-Feb-11 11:28N 52°06' E 004°16'0 0.0
2019-Feb-11 10:58N 52°06' E 004°16'0 0.0
2019-Feb-11 10:28N 52°06' E 004°16'0 0.0
2019-Feb-11 09:58N 52°06' E 004°16'0 0.0
2019-Feb-11 09:25N 52°06' E 004°16'0 0.0
2019-Feb-11 08:58N 52°06' E 004°16'0 0.0
2019-Feb-11 08:28N 52°06' E 004°16'0 0.0
2019-Feb-11 07:55N 52°06' E 004°16'0 0.0
2019-Feb-11 07:28N 52°06' E 004°16'0 0.0
2019-Feb-11 06:58N 52°06' E 004°16'0 0.0
2019-Feb-11 06:28N 52°06' E 004°16'0 0.0
2019-Feb-11 05:55N 52°06' E 004°16'0 0.0
2019-Feb-11 05:28N 52°06' E 004°16'0 0.0
2019-Feb-11 04:58N 52°06' E 004°16'0 0.0
2019-Feb-11 04:25N 52°06' E 004°16'0 0.0
2019-Feb-11 03:58N 52°06' E 004°16'0 0.0
2019-Feb-11 03:28N 52°06' E 004°16'0 0.0
2019-Feb-11 02:58N 52°06' E 004°16'0 0.0
2019-Feb-11 02:25N 52°06' E 004°16'0 0.0
2019-Feb-11 01:58N 52°06' E 004°16'0 0.0
2019-Feb-11 01:28N 52°06' E 004°16'0 0.0
2019-Feb-11 00:55N 52°06' E 004°16'0 0.0
2019-Feb-11 00:28N 52°06' E 004°16'0 0.0
2019-Feb-10 23:58N 52°06' E 004°16'0 0.0
2019-Feb-10 23:28N 52°06' E 004°16'0 0.0
2019-Feb-10 22:58N 52°06' E 004°16'0 0.0
2019-Feb-10 22:28N 52°06' E 004°16'0 0.0
2019-Feb-10 21:58N 52°06' E 004°16'0 0.0
2019-Feb-10 21:25N 52°06' E 004°16'0 0.0
2019-Feb-10 20:55N 52°06' E 004°16'0 0.0
2019-Feb-10 20:28N 52°06' E 004°16'0 0.0
2019-Feb-10 19:58N 52°06' E 004°16'0 0.0
2019-Feb-10 19:25N 52°06' E 004°16'0 0.0
2019-Feb-10 18:58N 52°06' E 004°16'0 0.0
2019-Feb-10 18:28N 52°06' E 004°16'0 0.0
2019-Feb-10 17:58N 52°06' E 004°16'0 0.0
2019-Feb-10 17:28N 52°06' E 004°16'0 0.0
2019-Feb-10 16:58N 52°06' E 004°16'0 0.0
2019-Feb-10 16:28N 52°06' E 004°16'0 0.0
2019-Feb-10 15:55N 52°06' E 004°16'0 0.0
2019-Feb-10 15:28N 52°06' E 004°16'0 0.0
2019-Feb-10 14:58N 52°06' E 004°16'0 0.0
2019-Feb-10 14:28N 52°06' E 004°16'0 0.0
2019-Feb-10 13:55N 52°06' E 004°16'0 0.0
2019-Feb-10 13:28N 52°06' E 004°16'0 0.0
2019-Feb-10 12:58N 52°06' E 004°16'0 0.0
2019-Feb-10 12:28N 52°06' E 004°16'0 0.0
2019-Feb-10 11:58N 52°06' E 004°16'0 0.0
2019-Feb-10 11:25N 52°06' E 004°16'0 0.0
2019-Feb-10 10:58N 52°06' E 004°16'0 0.0
2019-Feb-10 10:28N 52°06' E 004°16'0 0.0
2019-Feb-10 09:58N 52°06' E 004°16'0 0.0
2019-Feb-10 09:28N 52°06' E 004°16'0 0.0
2019-Feb-10 08:58N 52°06' E 004°16'0 0.0
2019-Feb-10 08:28N 52°06' E 004°16'0 0.0
2019-Feb-10 07:58N 52°06' E 004°16'0 0.0
2019-Feb-10 07:28N 52°06' E 004°16'0 0.0
2019-Feb-10 06:58N 52°06' E 004°16'0 0.0
2019-Feb-10 06:28N 52°06' E 004°16'0 0.0
2019-Feb-10 05:58N 52°06' E 004°16'0 0.0
2019-Feb-10 05:28N 52°06' E 004°16'0 0.0
2019-Feb-10 04:58N 52°06' E 004°16'0 0.0
2019-Feb-10 04:28N 52°06' E 004°16'0 0.0
2019-Feb-10 03:58N 52°06' E 004°16'0 0.0
2019-Feb-10 03:28N 52°06' E 004°16'0 0.0
2019-Feb-10 02:58N 52°06' E 004°16'0 0.0
2019-Feb-10 02:28N 52°06' E 004°16'0 0.0
2019-Feb-10 01:58N 52°06' E 004°16'0 0.0
2019-Feb-10 01:28N 52°06' E 004°16'0 0.0
2019-Feb-10 00:58N 52°06' E 004°16'0 0.0
2019-Feb-10 00:28N 52°06' E 004°16'0 0.0
2019-Feb-09 23:58N 52°06' E 004°16'0 0.0
2019-Feb-09 22:58N 52°06' E 004°16'0 0.0
2019-Feb-09 22:28N 52°06' E 004°16'0 0.0
2019-Feb-09 21:58N 52°06' E 004°16'0 0.0
2019-Feb-09 21:28N 52°06' E 004°16'0 0.0
2019-Feb-09 20:55N 52°06' E 004°16'0 0.0
2019-Feb-09 20:28N 52°06' E 004°16'0 0.0
2019-Feb-09 19:58N 52°06' E 004°16'0 0.0
2019-Feb-09 19:28N 52°06' E 004°16'0 0.0
2019-Feb-09 18:58N 52°06' E 004°16'0 0.0
2019-Feb-09 18:28N 52°06' E 004°16'0 0.0
2019-Feb-09 17:58N 52°06' E 004°16'0 0.0
2019-Feb-09 17:28N 52°06' E 004°16'0 0.0
2019-Feb-09 16:58N 52°06' E 004°16'0 0.0
2019-Feb-09 16:28N 52°06' E 004°16'0 0.0
2019-Feb-09 15:58N 52°06' E 004°16'0 0.0
2019-Feb-09 15:28N 52°06' E 004°16'0 0.0
2019-Feb-09 14:58N 52°06' E 004°16'0 0.0
2019-Feb-09 14:28N 52°06' E 004°16'0 0.0
2019-Feb-09 13:58N 52°06' E 004°16'0 0.0
2019-Feb-09 13:28N 52°06' E 004°16'0 0.0
2019-Feb-09 12:58N 52°06' E 004°16'0 0.0
2019-Feb-09 12:28N 52°06' E 004°16'0 0.0
2019-Feb-09 11:58N 52°06' E 004°16'0 0.0
2019-Feb-09 11:28N 52°06' E 004°16'0 0.0
2019-Feb-09 10:58N 52°06' E 004°16'0 0.0
2019-Feb-09 10:28N 52°06' E 004°16'0 0.0
2019-Feb-09 09:58N 52°06' E 004°16'0 0.0
2019-Feb-09 09:28N 52°06' E 004°16'0 0.0
2019-Feb-09 08:58N 52°06' E 004°16'0 0.0
2019-Feb-09 08:28N 52°06' E 004°16'0 0.0
2019-Feb-09 07:58N 52°06' E 004°16'0 0.0
2019-Feb-09 07:28N 52°06' E 004°16'0 0.0
2019-Feb-09 06:58N 52°06' E 004°16'0 0.0
2019-Feb-09 06:28N 52°06' E 004°16'0 0.0
2019-Feb-09 05:58N 52°06' E 004°16'0 0.0
2019-Feb-09 05:28N 52°06' E 004°16'0 0.0
2019-Feb-09 04:58N 52°06' E 004°16'0 0.0
2019-Feb-09 04:28N 52°06' E 004°16'0 0.0
2019-Feb-09 03:58N 52°06' E 004°16'0 0.0
2019-Feb-09 03:28N 52°06' E 004°16'0 0.0
2019-Feb-09 02:58N 52°06' E 004°16'0 0.0
2019-Feb-09 02:28N 52°06' E 004°16'0 0.0
2019-Feb-09 01:58N 52°06' E 004°16'0 0.0
2019-Feb-09 01:28N 52°06' E 004°16'0 0.0
2019-Feb-09 00:58N 52°06' E 004°16'0 0.0
2019-Feb-09 00:28N 52°06' E 004°16'0 0.0
2019-Feb-08 23:58N 52°06' E 004°16'0 0.0
2019-Feb-08 23:28N 52°06' E 004°16'0 0.0
2019-Feb-08 22:58N 52°06' E 004°16'0 0.0
2019-Feb-08 21:58N 52°06' E 004°16'0 0.0
2019-Feb-08 21:28N 52°06' E 004°16'0 0.0
2019-Feb-08 20:58N 52°06' E 004°16'0 0.0
2019-Feb-08 20:28N 52°06' E 004°16'0 0.0
2019-Feb-08 19:58N 52°06' E 004°16'0 0.0
2019-Feb-08 19:28N 52°06' E 004°16'0 0.0
2019-Feb-08 18:58N 52°06' E 004°16'0 0.0
2019-Feb-08 18:28N 52°06' E 004°16'0 0.0
2019-Feb-08 17:58N 52°06' E 004°16'0 0.0
2019-Feb-08 17:25N 52°06' E 004°16'0 0.0
2019-Feb-08 16:58N 52°06' E 004°16'0 0.0
2019-Feb-08 16:28N 52°06' E 004°16'0 0.0
2019-Feb-08 15:58N 52°06' E 004°16'0 0.0
2019-Feb-08 15:28N 52°06' E 004°16'0 0.0
2019-Feb-08 14:58N 52°06' E 004°16'0 0.0
2019-Feb-08 14:28N 52°06' E 004°16'0 0.0
2019-Feb-08 13:58N 52°06' E 004°16'0 0.0
2019-Feb-08 13:28N 52°06' E 004°16'0 0.0
2019-Feb-08 12:55N 52°06' E 004°16'0 0.0
2019-Feb-08 12:28N 52°06' E 004°16'0 0.0
2019-Feb-08 11:58N 52°06' E 004°16'0 0.0
2019-Feb-08 11:28N 52°06' E 004°16'0 0.0
2019-Feb-08 10:55N 52°06' E 004°16'0 0.0
2019-Feb-08 10:28N 52°06' E 004°16'0 0.0
2019-Feb-08 09:58N 52°06' E 004°16'0 0.0
2019-Feb-08 09:28N 52°06' E 004°16'0 0.0
2019-Feb-08 08:58N 52°06' E 004°16'0 0.0
2019-Feb-08 08:28N 52°06' E 004°16'0 0.0
2019-Feb-08 07:55N 52°06' E 004°16'0 0.0
2019-Feb-08 07:28N 52°06' E 004°16'0 0.0
2019-Feb-08 06:58N 52°06' E 004°16'0 0.0
2019-Feb-08 06:28N 52°06' E 004°16'0 0.0
2019-Feb-08 05:58N 52°06' E 004°16'0 0.0
2019-Feb-08 05:28N 52°06' E 004°16'0 0.0
2019-Feb-08 04:58N 52°06' E 004°16'0 0.0
2019-Feb-08 04:28N 52°06' E 004°16'0 0.0
2019-Feb-08 03:58N 52°06' E 004°16'0 0.0
2019-Feb-08 03:28N 52°06' E 004°16'0 0.0
2019-Feb-08 02:58N 52°06' E 004°16'0 0.0
2019-Feb-08 02:28N 52°06' E 004°16'0 0.0
2019-Feb-08 01:58N 52°06' E 004°16'0 0.0
2019-Feb-08 01:25N 52°06' E 004°16'0 0.0
2019-Feb-08 00:58N 52°06' E 004°16'0 0.0
2019-Feb-08 00:25N 52°06' E 004°16'0 0.0
2019-Feb-07 23:58N 52°06' E 004°16'0 0.0
2019-Feb-07 23:28N 52°06' E 004°16'0 0.0
2019-Feb-07 22:58N 52°06' E 004°16'0 0.0
2019-Feb-07 22:28N 52°06' E 004°16'0 0.0
2019-Feb-07 21:58N 52°06' E 004°16'0 0.0
2019-Feb-07 21:28N 52°06' E 004°16'0 0.0
2019-Feb-07 20:58N 52°06' E 004°16'0 0.0
2019-Feb-07 20:28N 52°06' E 004°16'0 0.0
2019-Feb-07 19:58N 52°06' E 004°16'0 0.0
2019-Feb-07 19:25N 52°06' E 004°16'0 0.0
2019-Feb-07 18:58N 52°06' E 004°16'0 0.0
2019-Feb-07 18:28N 52°06' E 004°16'0 0.0
2019-Feb-07 17:58N 52°06' E 004°16'0 0.0
2019-Feb-07 17:28N 52°06' E 004°16'0 0.0
2019-Feb-07 16:58N 52°06' E 004°16'0 0.0
2019-Feb-07 16:25N 52°06' E 004°16'0 0.0
2019-Feb-07 15:58N 52°06' E 004°16'0 0.0
2019-Feb-07 15:28N 52°06' E 004°16'0 0.0
2019-Feb-07 14:58N 52°06' E 004°16'0 0.0
2019-Feb-07 14:28N 52°06' E 004°16'0 0.0
2019-Feb-07 13:58N 52°06' E 004°16'0 0.0
2019-Feb-07 13:25N 52°06' E 004°16'0 0.0
2019-Feb-07 12:58N 52°06' E 004°16'0 0.0
2019-Feb-07 12:28N 52°06' E 004°16'0 0.0
2019-Feb-07 11:58N 52°06' E 004°16'0 0.0
2019-Feb-07 11:28N 52°06' E 004°16'0 0.0
2019-Feb-07 10:58N 52°06' E 004°16'0 0.0
2019-Feb-07 10:28N 52°06' E 004°16'0 0.0
2019-Feb-07 09:55N 52°06' E 004°16'0 0.0
2019-Feb-07 09:28N 52°06' E 004°16'0 0.0
2019-Feb-07 08:58N 52°06' E 004°16'0 0.0
2019-Feb-07 08:28N 52°06' E 004°16'0 0.0
2019-Feb-07 07:58N 52°06' E 004°16'0 0.0
2019-Feb-07 07:28N 52°06' E 004°16'0 0.0
2019-Feb-07 06:58N 52°06' E 004°16'0 0.0
2019-Feb-07 06:28N 52°06' E 004°16'0 0.0
2019-Feb-07 05:58N 52°06' E 004°16'0 0.0
2019-Feb-07 05:28N 52°06' E 004°16'0 0.0
2019-Feb-07 04:58N 52°06' E 004°16'0 0.0
2019-Feb-07 04:28N 52°06' E 004°16'0 0.0
2019-Feb-07 03:58N 52°06' E 004°16'0 0.0
2019-Feb-07 03:28N 52°06' E 004°16'0 0.0
2019-Feb-07 02:58N 52°06' E 004°16'0 0.0
2019-Feb-07 02:28N 52°06' E 004°16'0 0.0
2019-Feb-07 01:58N 52°06' E 004°16'0 0.0
2019-Feb-07 01:28N 52°06' E 004°16'0 0.0
2019-Feb-07 00:28N 52°06' E 004°16'0 0.0
2019-Feb-06 23:58N 52°06' E 004°16'0 0.0
2019-Feb-06 23:28N 52°06' E 004°16'0 0.0
2019-Feb-06 22:58N 52°06' E 004°16'0 0.0
2019-Feb-06 22:28N 52°06' E 004°16'0 0.0
2019-Feb-06 21:58N 52°06' E 004°16'0 0.0
2019-Feb-06 21:28N 52°06' E 004°16'0 0.0
2019-Feb-06 20:58N 52°06' E 004°16'0 0.0
2019-Feb-06 20:28N 52°06' E 004°16'0 0.0
2019-Feb-06 19:58N 52°06' E 004°16'0 0.0
2019-Feb-06 19:28N 52°06' E 004°16'0 0.0
2019-Feb-06 18:58N 52°06' E 004°16'0 0.0
2019-Feb-06 18:28N 52°06' E 004°16'0 0.0
2019-Feb-06 17:58N 52°06' E 004°16'0 0.0
2019-Feb-06 17:28N 52°06' E 004°16'0 0.0
2019-Feb-06 16:58N 52°06' E 004°16'0 0.0
2019-Feb-06 16:28N 52°06' E 004°16'0 0.0
2019-Feb-06 15:58N 52°06' E 004°16'0 0.0
2019-Feb-06 15:28N 52°06' E 004°16'0 0.0
2019-Feb-06 14:58N 52°06' E 004°16'0 0.0
2019-Feb-06 14:28N 52°06' E 004°16'0 0.0
2019-Feb-06 13:58N 52°06' E 004°16'0 0.0
2019-Feb-06 13:28N 52°06' E 004°16'0 0.0
2019-Feb-06 12:58N 52°06' E 004°16'0 0.0
2019-Feb-06 12:28N 52°06' E 004°16'0 0.0
2019-Feb-06 11:58N 52°06' E 004°16'0 0.0
2019-Feb-06 11:28N 52°06' E 004°16'0 0.0
2019-Feb-06 10:58N 52°06' E 004°16'0 0.0
2019-Feb-06 10:28N 52°06' E 004°16'0 0.0
2019-Feb-06 09:58N 52°06' E 004°16'0 0.0
2019-Feb-06 09:28N 52°06' E 004°16'0 0.0
2019-Feb-06 08:58N 52°06' E 004°16'0 0.0
2019-Feb-06 08:28N 52°06' E 004°16'0 0.0
2019-Feb-06 07:58N 52°06' E 004°16'0 0.0
2019-Feb-06 07:28N 52°06' E 004°16'0 0.0
2019-Feb-06 06:58N 52°06' E 004°16'0 0.0
2019-Feb-06 06:28N 52°06' E 004°16'0 0.0
2019-Feb-06 05:58N 52°06' E 004°16'0 0.0
2019-Feb-06 05:28N 52°06' E 004°16'0 0.0
2019-Feb-06 04:58N 52°06' E 004°16'0 0.0
2019-Feb-06 04:28N 52°06' E 004°16'0 0.0
2019-Feb-06 03:58N 52°06' E 004°16'0 0.0
2019-Feb-06 03:28N 52°06' E 004°16'0 0.0
2019-Feb-06 02:58N 52°06' E 004°16'0 0.0
2019-Feb-06 02:28N 52°06' E 004°16'0 0.0
2019-Feb-06 01:55N 52°06' E 004°16'0 0.0
2019-Feb-06 01:28N 52°06' E 004°16'0 0.0
2019-Feb-06 00:58N 52°06' E 004°16'0 0.0
2019-Feb-06 00:28N 52°06' E 004°16'0 0.0
2019-Feb-05 23:58N 52°06' E 004°16'0 0.0
2019-Feb-05 23:28N 52°06' E 004°16'0 0.0
2019-Feb-05 22:58N 52°06' E 004°16'0 0.0
2019-Feb-05 22:28N 52°06' E 004°16'0 0.0
2019-Feb-05 21:58N 52°06' E 004°16'0 0.0
2019-Feb-05 21:28N 52°06' E 004°16'  
Track history (hours):
 
Tides and Currents Weather Stations Pressure Air Temp Water Temp Dewpoint Dewpoint Depression Visibility Wind Speed Wind Dir Waves Ship Positions

Oceanographic research ship Arca (Netherlands)

Detailed information on ship capabilities available from University of Delaware's Ocean Information Center.

Last reported at 2019-Feb-15 21:14 UTC. Time now 2019-Feb-16 03:55 UTC.
Position N 54°47' E 004°20'.

Length 83 m; draft 5 m.

Type: Law enforcement. MMSI: 244454000.

Date/timePositionNaut miles runAvg speedWind from/ knotsBaromVisibWave heightAir tempDewpointWater temp
2019-Feb-15 21:14N 54°47' E 004°20'0 0.0
2019-Feb-15 20:59N 54°47' E 004°20'0 0.0
2019-Feb-15 20:29N 54°47' E 004°20'0 0.0
2019-Feb-15 19:50N 54°47' E 004°20'0 0.0
2019-Feb-15 19:29N 54°47' E 004°20'0 0.0
2019-Feb-15 18:59N 54°47' E 004°20'0 0.0
2019-Feb-15 18:29N 54°47' E 004°20'1 1.6
2019-Feb-15 18:00N 54°48' E 004°21'2 3.8
2019-Feb-15 17:30N 54°49' E 004°19'2 3.9
2019-Feb-15 17:00N 54°51' E 004°19'1 2.3
2019-Feb-15 16:30N 54°50' E 004°19'1 1.6
2019-Feb-15 16:00N 54°50' E 004°18'1 1.4
2019-Feb-15 15:30N 54°50' E 004°18'3 4.9
2019-Feb-15 15:00N 54°52' E 004°17'4 8.6
2019-Feb-15 14:30N 54°56' E 004°15'1 1.8
2019-Feb-15 14:00N 54°57' E 004°14'4 8.1
2019-Feb-15 13:30N 54°55' E 004°09'1 1.9
2019-Feb-15 12:59N 54°54' E 004°10'2 4.1
2019-Feb-15 12:30N 54°52' E 004°10'1 1.5
2019-Feb-15 11:58N 54°52' E 004°09'2 4.9
2019-Feb-15 11:30N 54°50' E 004°08'2 3.3
2019-Feb-15 11:00N 54°52' E 004°06'5 9.6
2019-Feb-15 10:29N 54°52' E 003°58'1 2.9
2019-Feb-15 10:00N 54°53' E 003°56'2 3.2
2019-Feb-15 09:30N 54°53' E 003°53'3 6.7
2019-Feb-15 08:59N 54°56' E 003°51'1 2.8
2019-Feb-15 08:30N 54°55' E 003°49'7 7.0
2019-Feb-15 07:32N 54°57' E 004°00'1 5.9
2019-Feb-15 07:25N 54°58' E 004°01'2 4.2
2019-Feb-15 06:50N 54°60' E 004°04'1 2.1
2019-Feb-15 06:26N 55°00' E 004°05'0 0.0
2019-Feb-15 03:05N 55°00' E 004°05'0 0.0
2019-Feb-15 02:32N 55°00' E 004°05'0 0.0
2019-Feb-15 02:05N 55°00' E 004°05'0 0.0
2019-Feb-15 01:50N 55°00' E 004°05'0 0.0
2019-Feb-15 01:23N 55°00' E 004°05'0 0.0
2019-Feb-15 00:47N 55°00' E 004°05'0 0.0
2019-Feb-15 00:26N 55°00' E 004°05'0 0.0
2019-Feb-14 23:56N 55°00' E 004°05'0 0.0
2019-Feb-14 22:17N 55°00' E 004°05'0 0.0
2019-Feb-14 21:47N 55°00' E 004°05'0 0.0
2019-Feb-14 17:07N 55°00' E 004°05'0 0.2
2019-Feb-14 16:52N 55°00' E 004°05'1 2.0
2019-Feb-14 16:30N 55°01' E 004°06'2 3.4
2019-Feb-14 16:00N 55°02' E 004°07'3 6.1
2019-Feb-14 15:28N 55°05' E 004°03'3 7.2
2019-Feb-14 15:00N 55°08' E 004°01'  
2019-Feb-12 04:38N 53°00' E 004°29'110.8
2019-Feb-12 04:31N 52°59' E 004°28'510.8
2019-Feb-12 04:01N 52°54' E 004°29'510.6
2019-Feb-12 03:30N 52°48' E 004°30'510.5
2019-Feb-12 03:00N 52°43' E 004°30'510.8
2019-Feb-12 02:30N 52°38' E 004°29'510.5
2019-Feb-12 02:01N 52°33' E 004°27'510.7
2019-Feb-12 01:30N 52°27' E 004°25'510.5
2019-Feb-12 01:00N 52°22' E 004°22'510.8
2019-Feb-12 00:30N 52°17' E 004°20'510.8
2019-Feb-12 00:01N 52°12' E 004°17'510.9
2019-Feb-11 23:30N 52°07' E 004°15'1 1.8
2019-Feb-11 22:58N 52°06' E 004°16'0 0.0
2019-Feb-11 22:25N 52°06' E 004°16'0 0.0
2019-Feb-11 21:58N 52°06' E 004°16'0 0.0
2019-Feb-11 21:28N 52°06' E 004°16'0 0.0
2019-Feb-11 20:58N 52°06' E 004°16'0 0.0
2019-Feb-11 20:28N 52°06' E 004°16'0 0.0
2019-Feb-11 19:58N 52°06' E 004°16'0 0.0
2019-Feb-11 19:28N 52°06' E 004°16'0 0.0
2019-Feb-11 18:55N 52°06' E 004°16'0 0.0
2019-Feb-11 18:28N 52°06' E 004°16'0 0.0
2019-Feb-11 17:58N 52°06' E 004°16'0 0.0
2019-Feb-11 17:28N 52°06' E 004°16'0 0.0
2019-Feb-11 16:58N 52°06' E 004°16'0 0.0
2019-Feb-11 16:28N 52°06' E 004°16'0 0.0
2019-Feb-11 15:58N 52°06' E 004°16'0 0.0
2019-Feb-11 15:28N 52°06' E 004°16'0 0.0
2019-Feb-11 14:58N 52°06' E 004°16'0 0.0
2019-Feb-11 14:28N 52°06' E 004°16'0 0.0
2019-Feb-11 13:58N 52°06' E 004°16'0 0.0
2019-Feb-11 13:28N 52°06' E 004°16'0 0.0
2019-Feb-11 12:58N 52°06' E 004°16'0 0.0
2019-Feb-11 12:25N 52°06' E 004°16'0 0.0
2019-Feb-11 11:58N 52°06' E 004°16'0 0.0
2019-Feb-11 11:28N 52°06' E 004°16'0 0.0
2019-Feb-11 10:58N 52°06' E 004°16'0 0.0
2019-Feb-11 10:28N 52°06' E 004°16'0 0.0
2019-Feb-11 09:58N 52°06' E 004°16'0 0.0
2019-Feb-11 09:25N 52°06' E 004°16'0 0.0
2019-Feb-11 08:58N 52°06' E 004°16'0 0.0
2019-Feb-11 08:28N 52°06' E 004°16'0 0.0
2019-Feb-11 07:55N 52°06' E 004°16'0 0.0
2019-Feb-11 07:28N 52°06' E 004°16'0 0.0
2019-Feb-11 06:58N 52°06' E 004°16'0 0.0
2019-Feb-11 06:28N 52°06' E 004°16'0 0.0
2019-Feb-11 05:55N 52°06' E 004°16'0 0.0
2019-Feb-11 05:28N 52°06' E 004°16'0 0.0
2019-Feb-11 04:58N 52°06' E 004°16'0 0.0
2019-Feb-11 04:25N 52°06' E 004°16'0 0.0
2019-Feb-11 03:58N 52°06' E 004°16'0 0.0
2019-Feb-11 03:28N 52°06' E 004°16'0 0.0
2019-Feb-11 02:58N 52°06' E 004°16'0 0.0
2019-Feb-11 02:25N 52°06' E 004°16'0 0.0
2019-Feb-11 01:58N 52°06' E 004°16'0 0.0
2019-Feb-11 01:28N 52°06' E 004°16'0 0.0
2019-Feb-11 00:55N 52°06' E 004°16'0 0.0
2019-Feb-11 00:28N 52°06' E 004°16'0 0.0
2019-Feb-10 23:58N 52°06' E 004°16'0 0.0
2019-Feb-10 23:28N 52°06' E 004°16'0 0.0
2019-Feb-10 22:58N 52°06' E 004°16'0 0.0
2019-Feb-10 22:28N 52°06' E 004°16'0 0.0
2019-Feb-10 21:58N 52°06' E 004°16'0 0.0
2019-Feb-10 21:25N 52°06' E 004°16'0 0.0
2019-Feb-10 20:55N 52°06' E 004°16'0 0.0
2019-Feb-10 20:28N 52°06' E 004°16'0 0.0
2019-Feb-10 19:58N 52°06' E 004°16'0 0.0
2019-Feb-10 19:25N 52°06' E 004°16'0 0.0
2019-Feb-10 18:58N 52°06' E 004°16'0 0.0
2019-Feb-10 18:28N 52°06' E 004°16'0 0.0
2019-Feb-10 17:58N 52°06' E 004°16'0 0.0
2019-Feb-10 17:28N 52°06' E 004°16'0 0.0
2019-Feb-10 16:58N 52°06' E 004°16'0 0.0
2019-Feb-10 16:28N 52°06' E 004°16'0 0.0
2019-Feb-10 15:55N 52°06' E 004°16'0 0.0
2019-Feb-10 15:28N 52°06' E 004°16'0 0.0
2019-Feb-10 14:58N 52°06' E 004°16'0 0.0
2019-Feb-10 14:28N 52°06' E 004°16'0 0.0
2019-Feb-10 13:55N 52°06' E 004°16'0 0.0
2019-Feb-10 13:28N 52°06' E 004°16'0 0.0
2019-Feb-10 12:58N 52°06' E 004°16'0 0.0
2019-Feb-10 12:28N 52°06' E 004°16'0 0.0
2019-Feb-10 11:58N 52°06' E 004°16'0 0.0
2019-Feb-10 11:25N 52°06' E 004°16'0 0.0
2019-Feb-10 10:58N 52°06' E 004°16'0 0.0
2019-Feb-10 10:28N 52°06' E 004°16'0 0.0
2019-Feb-10 09:58N 52°06' E 004°16'0 0.0
2019-Feb-10 09:28N 52°06' E 004°16'0 0.0
2019-Feb-10 08:58N 52°06' E 004°16'0 0.0
2019-Feb-10 08:28N 52°06' E 004°16'0 0.0
2019-Feb-10 07:58N 52°06' E 004°16'0 0.0
2019-Feb-10 07:28N 52°06' E 004°16'0 0.0
2019-Feb-10 06:58N 52°06' E 004°16'0 0.0
2019-Feb-10 06:28N 52°06' E 004°16'0 0.0
2019-Feb-10 05:58N 52°06' E 004°16'0 0.0
2019-Feb-10 05:28N 52°06' E 004°16'0 0.0
2019-Feb-10 04:58N 52°06' E 004°16'0 0.0
2019-Feb-10 04:28N 52°06' E 004°16'0 0.0
2019-Feb-10 03:58N 52°06' E 004°16'0 0.0
2019-Feb-10 03:28N 52°06' E 004°16'0 0.0
2019-Feb-10 02:58N 52°06' E 004°16'0 0.0
2019-Feb-10 02:28N 52°06' E 004°16'0 0.0
2019-Feb-10 01:58N 52°06' E 004°16'0 0.0
2019-Feb-10 01:28N 52°06' E 004°16'0 0.0
2019-Feb-10 00:58N 52°06' E 004°16'0 0.0
2019-Feb-10 00:28N 52°06' E 004°16'0 0.0
2019-Feb-09 23:58N 52°06' E 004°16'0 0.0
2019-Feb-09 22:58N 52°06' E 004°16'0 0.0
2019-Feb-09 22:28N 52°06' E 004°16'0 0.0
2019-Feb-09 21:58N 52°06' E 004°16'0 0.0
2019-Feb-09 21:28N 52°06' E 004°16'0 0.0
2019-Feb-09 20:55N 52°06' E 004°16'0 0.0
2019-Feb-09 20:28N 52°06' E 004°16'0 0.0
2019-Feb-09 19:58N 52°06' E 004°16'0 0.0
2019-Feb-09 19:28N 52°06' E 004°16'0 0.0
2019-Feb-09 18:58N 52°06' E 004°16'0 0.0
2019-Feb-09 18:28N 52°06' E 004°16'0 0.0
2019-Feb-09 17:58N 52°06' E 004°16'0 0.0
2019-Feb-09 17:28N 52°06' E 004°16'0 0.0
2019-Feb-09 16:58N 52°06' E 004°16'0 0.0
2019-Feb-09 16:28N 52°06' E 004°16'0 0.0
2019-Feb-09 15:58N 52°06' E 004°16'0 0.0
2019-Feb-09 15:28N 52°06' E 004°16'0 0.0
2019-Feb-09 14:58N 52°06' E 004°16'0 0.0
2019-Feb-09 14:28N 52°06' E 004°16'0 0.0
2019-Feb-09 13:58N 52°06' E 004°16'0 0.0
2019-Feb-09 13:28N 52°06' E 004°16'0 0.0
2019-Feb-09 12:58N 52°06' E 004°16'0 0.0
2019-Feb-09 12:28N 52°06' E 004°16'0 0.0
2019-Feb-09 11:58N 52°06' E 004°16'0 0.0
2019-Feb-09 11:28N 52°06' E 004°16'0 0.0
2019-Feb-09 10:58N 52°06' E 004°16'0 0.0
2019-Feb-09 10:28N 52°06' E 004°16'0 0.0
2019-Feb-09 09:58N 52°06' E 004°16'0 0.0
2019-Feb-09 09:28N 52°06' E 004°16'0 0.0
2019-Feb-09 08:58N 52°06' E 004°16'0 0.0
2019-Feb-09 08:28N 52°06' E 004°16'0 0.0
2019-Feb-09 07:58N 52°06' E 004°16'0 0.0
2019-Feb-09 07:28N 52°06' E 004°16'0 0.0
2019-Feb-09 06:58N 52°06' E 004°16'0 0.0
2019-Feb-09 06:28N 52°06' E 004°16'0 0.0
2019-Feb-09 05:58N 52°06' E 004°16'0 0.0
2019-Feb-09 05:28N 52°06' E 004°16'0 0.0
2019-Feb-09 04:58N 52°06' E 004°16'0 0.0
2019-Feb-09 04:28N 52°06' E 004°16'0 0.0
2019-Feb-09 03:58N 52°06' E 004°16'0 0.0
2019-Feb-09 03:28N 52°06' E 004°16'0 0.0
2019-Feb-09 02:58N 52°06' E 004°16'0 0.0
2019-Feb-09 02:28N 52°06' E 004°16'0 0.0
2019-Feb-09 01:58N 52°06' E 004°16'0 0.0
2019-Feb-09 01:28N 52°06' E 004°16'0 0.0
2019-Feb-09 00:58N 52°06' E 004°16'0 0.0
2019-Feb-09 00:28N 52°06' E 004°16'0 0.0
2019-Feb-08 23:58N 52°06' E 004°16'0 0.0
2019-Feb-08 23:28N 52°06' E 004°16'0 0.0
2019-Feb-08 22:58N 52°06' E 004°16'0 0.0
2019-Feb-08 21:58N 52°06' E 004°16'0 0.0
2019-Feb-08 21:28N 52°06' E 004°16'0 0.0
2019-Feb-08 20:58N 52°06' E 004°16'0 0.0
2019-Feb-08 20:28N 52°06' E 004°16'0 0.0
2019-Feb-08 19:58N 52°06' E 004°16'0 0.0
2019-Feb-08 19:28N 52°06' E 004°16'0 0.0
2019-Feb-08 18:58N 52°06' E 004°16'0 0.0
2019-Feb-08 18:28N 52°06' E 004°16'0 0.0
2019-Feb-08 17:58N 52°06' E 004°16'0 0.0
2019-Feb-08 17:25N 52°06' E 004°16'0 0.0
2019-Feb-08 16:58N 52°06' E 004°16'0 0.0
2019-Feb-08 16:28N 52°06' E 004°16'0 0.0
2019-Feb-08 15:58N 52°06' E 004°16'0 0.0
2019-Feb-08 15:28N 52°06' E 004°16'0 0.0
2019-Feb-08 14:58N 52°06' E 004°16'0 0.0
2019-Feb-08 14:28N 52°06' E 004°16'0 0.0
2019-Feb-08 13:58N 52°06' E 004°16'0 0.0
2019-Feb-08 13:28N 52°06' E 004°16'0 0.0
2019-Feb-08 12:55N 52°06' E 004°16'0 0.0
2019-Feb-08 12:28N 52°06' E 004°16'0 0.0
2019-Feb-08 11:58N 52°06' E 004°16'0 0.0
2019-Feb-08 11:28N 52°06' E 004°16'0 0.0
2019-Feb-08 10:55N 52°06' E 004°16'0 0.0
2019-Feb-08 10:28N 52°06' E 004°16'0 0.0
2019-Feb-08 09:58N 52°06' E 004°16'0 0.0
2019-Feb-08 09:28N 52°06' E 004°16'0 0.0
2019-Feb-08 08:58N 52°06' E 004°16'0 0.0
2019-Feb-08 08:28N 52°06' E 004°16'0 0.0
2019-Feb-08 07:55N 52°06' E 004°16'0 0.0
2019-Feb-08 07:28N 52°06' E 004°16'0 0.0
2019-Feb-08 06:58N 52°06' E 004°16'0 0.0
2019-Feb-08 06:28N 52°06' E 004°16'0 0.0
2019-Feb-08 05:58N 52°06' E 004°16'0 0.0
2019-Feb-08 05:28N 52°06' E 004°16'0 0.0
2019-Feb-08 04:58N 52°06' E 004°16'0 0.0
2019-Feb-08 04:28N 52°06' E 004°16'0 0.0
2019-Feb-08 03:58N 52°06' E 004°16'0 0.0
2019-Feb-08 03:28N 52°06' E 004°16'0 0.0
2019-Feb-08 02:58N 52°06' E 004°16'0 0.0
2019-Feb-08 02:28N 52°06' E 004°16'0 0.0
2019-Feb-08 01:58N 52°06' E 004°16'0 0.0
2019-Feb-08 01:25N 52°06' E 004°16'0 0.0
2019-Feb-08 00:58N 52°06' E 004°16'0 0.0
2019-Feb-08 00:25N 52°06' E 004°16'0 0.0
2019-Feb-07 23:58N 52°06' E 004°16'0 0.0
2019-Feb-07 23:28N 52°06' E 004°16'0 0.0
2019-Feb-07 22:58N 52°06' E 004°16'0 0.0
2019-Feb-07 22:28N 52°06' E 004°16'0 0.0
2019-Feb-07 21:58N 52°06' E 004°16'0 0.0
2019-Feb-07 21:28N 52°06' E 004°16'0 0.0
2019-Feb-07 20:58N 52°06' E 004°16'0 0.0
2019-Feb-07 20:28N 52°06' E 004°16'0 0.0
2019-Feb-07 19:58N 52°06' E 004°16'0 0.0
2019-Feb-07 19:25N 52°06' E 004°16'0 0.0
2019-Feb-07 18:58N 52°06' E 004°16'0 0.0
2019-Feb-07 18:28N 52°06' E 004°16'0 0.0
2019-Feb-07 17:58N 52°06' E 004°16'0 0.0
2019-Feb-07 17:28N 52°06' E 004°16'0 0.0
2019-Feb-07 16:58N 52°06' E 004°16'0 0.0
2019-Feb-07 16:25N 52°06' E 004°16'0 0.0
2019-Feb-07 15:58N 52°06' E 004°16'0 0.0
2019-Feb-07 15:28N 52°06' E 004°16'0 0.0
2019-Feb-07 14:58N 52°06' E 004°16'0 0.0
2019-Feb-07 14:28N 52°06' E 004°16'0 0.0
2019-Feb-07 13:58N 52°06' E 004°16'0 0.0
2019-Feb-07 13:25N 52°06' E 004°16'0 0.0
2019-Feb-07 12:58N 52°06' E 004°16'0 0.0
2019-Feb-07 12:28N 52°06' E 004°16'0 0.0
2019-Feb-07 11:58N 52°06' E 004°16'0 0.0
2019-Feb-07 11:28N 52°06' E 004°16'0 0.0
2019-Feb-07 10:58N 52°06' E 004°16'0 0.0
2019-Feb-07 10:28N 52°06' E 004°16'0 0.0
2019-Feb-07 09:55N 52°06' E 004°16'0 0.0
2019-Feb-07 09:28N 52°06' E 004°16'0 0.0
2019-Feb-07 08:58N 52°06' E 004°16'0 0.0
2019-Feb-07 08:28N 52°06' E 004°16'0 0.0
2019-Feb-07 07:58N 52°06' E 004°16'0 0.0
2019-Feb-07 07:28N 52°06' E 004°16'0 0.0
2019-Feb-07 06:58N 52°06' E 004°16'0 0.0
2019-Feb-07 06:28N 52°06' E 004°16'0 0.0
2019-Feb-07 05:58N 52°06' E 004°16'0 0.0
2019-Feb-07 05:28N 52°06' E 004°16'0 0.0
2019-Feb-07 04:58N 52°06' E 004°16'0 0.0
2019-Feb-07 04:28N 52°06' E 004°16'0 0.0
2019-Feb-07 03:58N 52°06' E 004°16'0 0.0
2019-Feb-07 03:28N 52°06' E 004°16'0 0.0
2019-Feb-07 02:58N 52°06' E 004°16'0 0.0
2019-Feb-07 02:28N 52°06' E 004°16'0 0.0
2019-Feb-07 01:58N 52°06' E 004°16'0 0.0
2019-Feb-07 01:28N 52°06' E 004°16'0 0.0
2019-Feb-07 00:28N 52°06' E 004°16'0 0.0
2019-Feb-06 23:58N 52°06' E 004°16'0 0.0
2019-Feb-06 23:28N 52°06' E 004°16'0 0.0
2019-Feb-06 22:58N 52°06' E 004°16'0 0.0
2019-Feb-06 22:28N 52°06' E 004°16'0 0.0
2019-Feb-06 21:58N 52°06' E 004°16'0 0.0
2019-Feb-06 21:28N 52°06' E 004°16'0 0.0
2019-Feb-06 20:58N 52°06' E 004°16'0 0.0
2019-Feb-06 20:28N 52°06' E 004°16'0 0.0
2019-Feb-06 19:58N 52°06' E 004°16'0 0.0
2019-Feb-06 19:28N 52°06' E 004°16'0 0.0
2019-Feb-06 18:58N 52°06' E 004°16'0 0.0
2019-Feb-06 18:28N 52°06' E 004°16'0 0.0
2019-Feb-06 17:58N 52°06' E 004°16'0 0.0
2019-Feb-06 17:28N 52°06' E 004°16'0 0.0
2019-Feb-06 16:58N 52°06' E 004°16'0 0.0
2019-Feb-06 16:28N 52°06' E 004°16'0 0.0
2019-Feb-06 15:58N 52°06' E 004°16'0 0.0
2019-Feb-06 15:28N 52°06' E 004°16'0 0.0
2019-Feb-06 14:58N 52°06' E 004°16'0 0.0
2019-Feb-06 14:28N 52°06' E 004°16'0 0.0
2019-Feb-06 13:58N 52°06' E 004°16'0 0.0
2019-Feb-06 13:28N 52°06' E 004°16'0 0.0
2019-Feb-06 12:58N 52°06' E 004°16'0 0.0
2019-Feb-06 12:28N 52°06' E 004°16'0 0.0
2019-Feb-06 11:58N 52°06' E 004°16'0 0.0
2019-Feb-06 11:28N 52°06' E 004°16'0 0.0
2019-Feb-06 10:58N 52°06' E 004°16'0 0.0
2019-Feb-06 10:28N 52°06' E 004°16'0 0.0
2019-Feb-06 09:58N 52°06' E 004°16'0 0.0
2019-Feb-06 09:28N 52°06' E 004°16'0 0.0
2019-Feb-06 08:58N 52°06' E 004°16'0 0.0
2019-Feb-06 08:28N 52°06' E 004°16'0 0.0
2019-Feb-06 07:58N 52°06' E 004°16'0 0.0
2019-Feb-06 07:28N 52°06' E 004°16'0 0.0
2019-Feb-06 06:58N 52°06' E 004°16'0 0.0
2019-Feb-06 06:28N 52°06' E 004°16'0 0.0
2019-Feb-06 05:58N 52°06' E 004°16'0 0.0
2019-Feb-06 05:28N 52°06' E 004°16'0 0.0
2019-Feb-06 04:58N 52°06' E 004°16'0 0.0
2019-Feb-06 04:28N 52°06' E 004°16'0 0.0
2019-Feb-06 03:58N 52°06' E 004°16'0 0.0
2019-Feb-06 03:28N 52°06' E 004°16'0 0.0
2019-Feb-06 02:58N 52°06' E 004°16'0 0.0
2019-Feb-06 02:28N 52°06' E 004°16'0 0.0
2019-Feb-06 01:55N 52°06' E 004°16'0 0.0
2019-Feb-06 01:28N 52°06' E 004°16'0 0.0
2019-Feb-06 00:58N 52°06' E 004°16'0 0.0
2019-Feb-06 00:28N 52°06' E 004°16'0 0.0
2019-Feb-05 23:58N 52°06' E 004°16'0 0.0
2019-Feb-05 23:28N 52°06' E 004°16'0 0.0
2019-Feb-05 22:58N 52°06' E 004°16'0 0.0
2019-Feb-05 22:28N 52°06' E 004°16'0 0.0
2019-Feb-05 21:58N 52°06' E 004°16'0 0.0
2019-Feb-05 21:28N 52°06' E 004°16'  

Dump ship's entire track history